sensor_id;sensor_type;location;lat;lon;timestamp;P1;durP1;ratioP1;P2;durP2;ratioP2
10142;SDS011;5112;54.088;13.446;2023-09-30T00:04:27;10.77;;;4.63;;
10142;SDS011;5112;54.088;13.446;2023-09-30T00:14:31;12.33;;;4.20;;
10142;SDS011;5112;54.088;13.446;2023-09-30T00:24:32;6.93;;;3.90;;
10142;SDS011;5112;54.088;13.446;2023-09-30T00:34:36;8.87;;;4.47;;
10142;SDS011;5112;54.088;13.446;2023-09-30T00:44:37;10.10;;;4.07;;
10142;SDS011;5112;54.088;13.446;2023-09-30T00:54:40;10.67;;;4.93;;
10142;SDS011;5112;54.088;13.446;2023-09-30T01:04:44;11.97;;;4.30;;
10142;SDS011;5112;54.088;13.446;2023-09-30T01:14:47;8.93;;;3.40;;
10142;SDS011;5112;54.088;13.446;2023-09-30T01:24:50;11.33;;;4.20;;
10142;SDS011;5112;54.088;13.446;2023-09-30T01:34:52;12.77;;;4.23;;
10142;SDS011;5112;54.088;13.446;2023-09-30T01:44:54;11.07;;;4.67;;
10142;SDS011;5112;54.088;13.446;2023-09-30T01:54:57;9.73;;;3.90;;
10142;SDS011;5112;54.088;13.446;2023-09-30T02:05:00;10.73;;;4.20;;
10142;SDS011;5112;54.088;13.446;2023-09-30T02:15:02;9.23;;;4.17;;
10142;SDS011;5112;54.088;13.446;2023-09-30T02:25:06;10.70;;;4.90;;
10142;SDS011;5112;54.088;13.446;2023-09-30T02:35:08;14.43;;;4.10;;
10142;SDS011;5112;54.088;13.446;2023-09-30T02:45:15;14.00;;;4.07;;
10142;SDS011;5112;54.088;13.446;2023-09-30T02:55:18;10.40;;;4.43;;
10142;SDS011;5112;54.088;13.446;2023-09-30T03:05:21;8.63;;;4.40;;
10142;SDS011;5112;54.088;13.446;2023-09-30T03:15:24;12.33;;;4.40;;
10142;SDS011;5112;54.088;13.446;2023-09-30T03:25:27;12.47;;;3.33;;
10142;SDS011;5112;54.088;13.446;2023-09-30T03:35:30;8.23;;;3.17;;
10142;SDS011;5112;54.088;13.446;2023-09-30T03:45:33;9.40;;;4.03;;
10142;SDS011;5112;54.088;13.446;2023-09-30T03:55:37;11.03;;;3.80;;
10142;SDS011;5112;54.088;13.446;2023-09-30T04:05:40;8.88;;;4.25;;
10142;SDS011;5112;54.088;13.446;2023-09-30T04:15:41;8.30;;;3.87;;
10142;SDS011;5112;54.088;13.446;2023-09-30T04:25:46;7.90;;;3.80;;
10142;SDS011;5112;54.088;13.446;2023-09-30T04:35:47;8.97;;;3.90;;
10142;SDS011;5112;54.088;13.446;2023-09-30T04:45:51;11.27;;;4.50;;
10142;SDS011;5112;54.088;13.446;2023-09-30T04:55:53;10.43;;;4.20;;
10142;SDS011;5112;54.088;13.446;2023-09-30T05:05:56;10.70;;;4.03;;
10142;SDS011;5112;54.088;13.446;2023-09-30T05:15:58;7.80;;;3.60;;
10142;SDS011;5112;54.088;13.446;2023-09-30T05:26:01;13.23;;;4.03;;
10142;SDS011;5112;54.088;13.446;2023-09-30T05:36:02;8.30;;;3.73;;
10142;SDS011;5112;54.088;13.446;2023-09-30T05:46:07;10.43;;;4.43;;
10142;SDS011;5112;54.088;13.446;2023-09-30T05:56:08;11.60;;;4.27;;
10142;SDS011;5112;54.088;13.446;2023-09-30T06:06:12;11.10;;;4.10;;
10142;SDS011;5112;54.088;13.446;2023-09-30T06:16:15;11.63;;;4.50;;
10142;SDS011;5112;54.088;13.446;2023-09-30T06:26:19;8.53;;;3.53;;
10142;SDS011;5112;54.088;13.446;2023-09-30T06:36:21;12.20;;;3.60;;
10142;SDS011;5112;54.088;13.446;2023-09-30T06:46:24;10.37;;;3.83;;
10142;SDS011;5112;54.088;13.446;2023-09-30T06:56:26;10.97;;;4.03;;
10142;SDS011;5112;54.088;13.446;2023-09-30T07:06:29;11.13;;;4.33;;
10142;SDS011;5112;54.088;13.446;2023-09-30T07:16:31;14.70;;;4.60;;
10142;SDS011;5112;54.088;13.446;2023-09-30T07:26:34;11.30;;;4.83;;
10142;SDS011;5112;54.088;13.446;2023-09-30T07:36:35;11.77;;;3.73;;
10142;SDS011;5112;54.088;13.446;2023-09-30T07:46:38;7.73;;;3.23;;
10142;SDS011;5112;54.088;13.446;2023-09-30T07:56:40;6.30;;;3.40;;
10142;SDS011;5112;54.088;13.446;2023-09-30T08:06:43;9.17;;;3.00;;
10142;SDS011;5112;54.088;13.446;2023-09-30T08:16:45;8.60;;;3.60;;
10142;SDS011;5112;54.088;13.446;2023-09-30T08:26:50;9.07;;;3.47;;
10142;SDS011;5112;54.088;13.446;2023-09-30T08:36:52;7.07;;;3.13;;
10142;SDS011;5112;54.088;13.446;2023-09-30T08:46:55;10.67;;;3.50;;
10142;SDS011;5112;54.088;13.446;2023-09-30T08:56:57;7.77;;;3.30;;
10142;SDS011;5112;54.088;13.446;2023-09-30T09:07:02;5.63;;;3.30;;
10142;SDS011;5112;54.088;13.446;2023-09-30T09:17:05;10.20;;;3.50;;
10142;SDS011;5112;54.088;13.446;2023-09-30T09:27:10;9.53;;;3.60;;
10142;SDS011;5112;54.088;13.446;2023-09-30T09:37:13;7.40;;;3.13;;
10142;SDS011;5112;54.088;13.446;2023-09-30T09:47:17;9.47;;;3.70;;
10142;SDS011;5112;54.088;13.446;2023-09-30T09:57:20;7.27;;;3.03;;
10142;SDS011;5112;54.088;13.446;2023-09-30T10:07:27;7.20;;;2.90;;
10142;SDS011;5112;54.088;13.446;2023-09-30T10:27:59;9.10;;;3.20;;
10142;SDS011;5112;54.088;13.446;2023-09-30T10:48:37;5.60;;;2.57;;
10142;SDS011;5112;54.088;13.446;2023-09-30T10:58:42;5.57;;;2.80;;
10142;SDS011;5112;54.088;13.446;2023-09-30T11:08:47;8.17;;;2.60;;
10142;SDS011;5112;54.088;13.446;2023-09-30T11:18:53;7.40;;;2.90;;
10142;SDS011;5112;54.088;13.446;2023-09-30T11:28:56;7.33;;;2.50;;
10142;SDS011;5112;54.088;13.446;2023-09-30T11:39:06;7.57;;;2.70;;
10142;SDS011;5112;54.088;13.446;2023-09-30T11:49:10;5.67;;;2.47;;
10142;SDS011;5112;54.088;13.446;2023-09-30T11:59:12;5.53;;;2.23;;
10142;SDS011;5112;54.088;13.446;2023-09-30T12:09:15;7.60;;;2.90;;
10142;SDS011;5112;54.088;13.446;2023-09-30T12:19:22;5.20;;;2.10;;
10142;SDS011;5112;54.088;13.446;2023-09-30T12:29:26;4.43;;;1.70;;
10142;SDS011;5112;54.088;13.446;2023-09-30T12:39:27;5.77;;;2.27;;
10142;SDS011;5112;54.088;13.446;2023-09-30T12:49:34;5.60;;;3.10;;
10142;SDS011;5112;54.088;13.446;2023-09-30T12:59:36;4.50;;;1.80;;
10142;SDS011;5112;54.088;13.446;2023-09-30T13:09:39;8.90;;;2.33;;
10142;SDS011;5112;54.088;13.446;2023-09-30T13:19:40;5.57;;;2.30;;
10142;SDS011;5112;54.088;13.446;2023-09-30T13:29:44;7.43;;;2.33;;
10142;SDS011;5112;54.088;13.446;2023-09-30T13:39:46;5.33;;;1.97;;
10142;SDS011;5112;54.088;13.446;2023-09-30T13:49:52;3.37;;;2.20;;
10142;SDS011;5112;54.088;13.446;2023-09-30T13:59:55;5.57;;;1.93;;
10142;SDS011;5112;54.088;13.446;2023-09-30T14:09:58;5.83;;;1.70;;
10142;SDS011;5112;54.088;13.446;2023-09-30T14:19:59;4.70;;;2.30;;
10142;SDS011;5112;54.088;13.446;2023-09-30T14:30:02;4.10;;;1.87;;
10142;SDS011;5112;54.088;13.446;2023-09-30T14:40:05;7.17;;;2.37;;
10142;SDS011;5112;54.088;13.446;2023-09-30T14:50:11;5.00;;;3.23;;
10142;SDS011;5112;54.088;13.446;2023-09-30T15:00:13;5.67;;;2.70;;
10142;SDS011;5112;54.088;13.446;2023-09-30T15:10:17;5.27;;;2.10;;
10142;SDS011;5112;54.088;13.446;2023-09-30T15:20:19;4.47;;;2.27;;
10142;SDS011;5112;54.088;13.446;2023-09-30T15:30:21;3.83;;;2.10;;
10142;SDS011;5112;54.088;13.446;2023-09-30T15:40:23;6.27;;;2.30;;
10142;SDS011;5112;54.088;13.446;2023-09-30T15:50:27;7.10;;;2.53;;
10142;SDS011;5112;54.088;13.446;2023-09-30T16:00:28;5.90;;;2.50;;
10142;SDS011;5112;54.088;13.446;2023-09-30T16:10:32;5.90;;;2.63;;
10142;SDS011;5112;54.088;13.446;2023-09-30T16:20:34;6.20;;;2.70;;
10142;SDS011;5112;54.088;13.446;2023-09-30T16:30:37;5.00;;;2.60;;
10142;SDS011;5112;54.088;13.446;2023-09-30T16:40:39;5.60;;;2.30;;
10142;SDS011;5112;54.088;13.446;2023-09-30T16:50:42;8.07;;;3.03;;
10142;SDS011;5112;54.088;13.446;2023-09-30T17:00:44;4.73;;;3.07;;
10142;SDS011;5112;54.088;13.446;2023-09-30T17:10:48;4.97;;;2.97;;
10142;SDS011;5112;54.088;13.446;2023-09-30T17:20:52;7.30;;;3.27;;
10142;SDS011;5112;54.088;13.446;2023-09-30T17:30:56;7.77;;;3.07;;
10142;SDS011;5112;54.088;13.446;2023-09-30T17:41:04;10.43;;;5.03;;
10142;SDS011;5112;54.088;13.446;2023-09-30T17:51:12;10.00;;;4.60;;
10142;SDS011;5112;54.088;13.446;2023-09-30T18:01:15;10.90;;;3.40;;
10142;SDS011;5112;54.088;13.446;2023-09-30T18:11:20;7.30;;;2.87;;
10142;SDS011;5112;54.088;13.446;2023-09-30T18:21:22;7.30;;;3.33;;
10142;SDS011;5112;54.088;13.446;2023-09-30T18:31:25;7.80;;;3.63;;
10142;SDS011;5112;54.088;13.446;2023-09-30T18:41:26;6.70;;;3.37;;
10142;SDS011;5112;54.088;13.446;2023-09-30T18:51:30;8.83;;;4.40;;
10142;SDS011;5112;54.088;13.446;2023-09-30T19:01:32;6.97;;;3.90;;
10142;SDS011;5112;54.088;13.446;2023-09-30T19:11:35;5.67;;;3.60;;
10142;SDS011;5112;54.088;13.446;2023-09-30T19:21:37;8.50;;;3.97;;
10142;SDS011;5112;54.088;13.446;2023-09-30T19:31:40;6.67;;;3.70;;
10142;SDS011;5112;54.088;13.446;2023-09-30T19:41:42;6.30;;;3.47;;
10142;SDS011;5112;54.088;13.446;2023-09-30T19:51:44;7.63;;;3.27;;
10142;SDS011;5112;54.088;13.446;2023-09-30T20:01:47;5.47;;;3.07;;
10142;SDS011;5112;54.088;13.446;2023-09-30T20:11:51;6.73;;;2.60;;
10142;SDS011;5112;54.088;13.446;2023-09-30T20:21:56;6.90;;;4.03;;
10142;SDS011;5112;54.088;13.446;2023-09-30T20:32:02;5.87;;;3.00;;
10142;SDS011;5112;54.088;13.446;2023-09-30T20:42:04;4.23;;;2.57;;
10142;SDS011;5112;54.088;13.446;2023-09-30T20:52:07;4.27;;;2.70;;
10142;SDS011;5112;54.088;13.446;2023-09-30T21:02:08;5.17;;;2.73;;
10142;SDS011;5112;54.088;13.446;2023-09-30T21:12:12;6.23;;;2.57;;
10142;SDS011;5112;54.088;13.446;2023-09-30T21:22:14;4.50;;;2.73;;
10142;SDS011;5112;54.088;13.446;2023-09-30T21:32:17;8.43;;;4.03;;
10142;SDS011;5112;54.088;13.446;2023-09-30T21:42:18;11.70;;;6.17;;
10142;SDS011;5112;54.088;13.446;2023-09-30T21:52:21;8.43;;;3.70;;
10142;SDS011;5112;54.088;13.446;2023-09-30T22:02:23;6.47;;;3.47;;
10142;SDS011;5112;54.088;13.446;2023-09-30T22:12:28;5.57;;;3.53;;
10142;SDS011;5112;54.088;13.446;2023-09-30T22:22:30;4.23;;;2.87;;
10142;SDS011;5112;54.088;13.446;2023-09-30T22:32:33;5.87;;;2.87;;
10142;SDS011;5112;54.088;13.446;2023-09-30T22:42:35;6.30;;;3.20;;
10142;SDS011;5112;54.088;13.446;2023-09-30T22:52:38;5.13;;;3.07;;
10142;SDS011;5112;54.088;13.446;2023-09-30T23:02:40;7.13;;;3.70;;
10142;SDS011;5112;54.088;13.446;2023-09-30T23:12:44;7.10;;;3.33;;
10142;SDS011;5112;54.088;13.446;2023-09-30T23:22:46;7.03;;;3.00;;
10142;SDS011;5112;54.088;13.446;2023-09-30T23:32:52;6.50;;;2.60;;
10142;SDS011;5112;54.088;13.446;2023-09-30T23:42:56;8.17;;;2.70;;
10142;SDS011;5112;54.088;13.446;2023-09-30T23:53:01;5.67;;;2.77;;
